Time;durP1;ratioP1;P1;durP2;ratioP2;P2;SDS_P1;SDS_P2;PMS_P1;PMS_P2;Temp;Humidity;BMP_temperature;BMP_pressure;BME280_temperature;BME280_humidity;BME280_pressure;Samples;Min_cycle;Max_cycle;Signal;HPM_P1;HPM_P2
2023/04/26 00:00:35;;;;;;;0.10;0.10;;;;;;;;;;5094624;28;20037;-70
2023/04/26 00:03:00;;;;;;;0.10;0.10;;;;;;;;;;5093937;28;20071;-70
2023/04/26 00:05:28;;;;;;;0.10;0.10;;;;;;;;;;5092985;28;20020;-70
2023/04/26 00:07:53;;;;;;;0.10;0.10;;;;;;;;;;5093894;28;20039;-71
2023/04/26 00:10:19;;;;;;;0.15;0.15;;;;;;;;;;5093776;28;20028;-70
2023/04/26 00:12:44;;;;;;;0.10;0.10;;;;;;;;;;5093696;28;20414;-70
2023/04/26 00:15:10;;;;;;;0.10;0.10;;;;;;;;;;5093333;28;20076;-70
2023/04/26 00:17:36;;;;;;;0.10;0.10;;;;;;;;;;5093972;28;20036;-70
2023/04/26 00:20:03;;;;;;;0.10;0.10;;;;;;;;;;5093598;28;20057;-71
2023/04/26 00:22:28;;;;;;;0.10;0.10;;;;;;;;;;5087125;28;20047;-69
2023/04/26 00:24:53;;;;;;;0.10;0.10;;;;;;;;;;5072145;28;20024;-70
2023/04/26 00:27:19;;;;;;;0.30;0.30;;;;;;;;;;5073321;28;20044;-70
2023/04/26 00:29:45;;;;;;;0.10;0.10;;;;;;;;;;5072085;28;20044;-70
2023/04/26 00:32:10;;;;;;;0.75;0.47;;;;;;;;;;5073171;28;20029;-70
2023/04/26 00:34:36;;;;;;;1.95;0.68;;;;;;;;;;5055400;28;20028;-71
2023/04/26 00:37:02;;;;;;;1.55;0.95;;;;;;;;;;5073215;28;20085;-71
2023/04/26 00:39:28;;;;;;;0.77;0.40;;;;;;;;;;5073334;28;20111;-70
2023/04/26 00:41:54;;;;;;;0.10;0.10;;;;;;;;;;5072924;28;20120;-70
2023/04/26 00:44:20;;;;;;;3.47;1.98;;;;;;;;;;5073080;28;20039;-70
2023/04/26 00:46:46;;;;;;;0.10;0.10;;;;;;;;;;5055217;28;20040;-70
2023/04/26 00:49:14;;;;;;;0.10;0.10;;;;;;;;;;5073029;28;20017;-70
2023/04/26 00:51:40;;;;;;;0.10;0.10;;;;;;;;;;5059477;28;20398;-70
2023/04/26 00:54:07;;;;;;;0.10;0.10;;;;;;;;;;5075041;28;20084;-71
2023/04/26 00:56:33;;;;;;;0.10;0.10;;;;;;;;;;5059087;28;20035;-71
2023/04/26 00:58:59;;;;;;;0.10;0.10;;;;;;;;;;5076707;28;20040;-70
2023/04/26 01:01:24;;;;;;;0.10;0.10;;;;;;;;;;5093457;28;20062;-70
2023/04/26 01:03:50;;;;;;;1.02;0.98;;;;;;;;;;5093187;28;20020;-71
2023/04/26 01:06:16;;;;;;;0.10;0.10;;;;;;;;;;5075181;28;20032;-70
2023/04/26 01:08:42;;;;;;;0.10;0.10;;;;;;;;;;5093121;28;20026;-70
2023/04/26 01:11:07;;;;;;;0.10;0.10;;;;;;;;;;5092938;28;20114;-70
2023/04/26 01:13:35;;;;;;;0.10;0.10;;;;;;;;;;5074907;28;20082;-71
2023/04/26 01:16:01;;;;;;;0.10;0.10;;;;;;;;;;5074458;28;20031;-71
2023/04/26 01:18:26;;;;;;;0.10;0.10;;;;;;;;;;5091626;28;20495;-71
2023/04/26 01:20:52;;;;;;;0.10;0.10;;;;;;;;;;5092717;28;20494;-70
2023/04/26 01:23:17;;;;;;;0.10;0.10;;;;;;;;;;5074663;28;20479;-71
2023/04/26 01:25:43;;;;;;;0.10;0.10;;;;;;;;;;5092677;28;20086;-71
2023/04/26 01:28:08;;;;;;;0.10;0.10;;;;;;;;;;5074579;28;20043;-71
2023/04/26 01:30:34;;;;;;;0.15;0.15;;;;;;;;;;5092765;28;20052;-71
2023/04/26 01:33:01;;;;;;;0.63;0.40;;;;;;;;;;5092840;28;20039;-71
2023/04/26 01:35:27;;;;;;;0.63;0.52;;;;;;;;;;5092770;28;20024;-70
2023/04/26 01:37:52;;;;;;;1.45;0.60;;;;;;;;;;5092615;28;20039;-70
2023/04/26 01:40:20;;;;;;;0.30;0.30;;;;;;;;;;5092590;28;20044;-71
2023/04/26 01:42:45;;;;;;;0.30;0.30;;;;;;;;;;5092879;28;20054;-70
2023/04/26 01:45:11;;;;;;;0.10;0.10;;;;;;;;;;5074557;28;20036;-70
2023/04/26 01:47:54;;;;;;;0.55;0.55;;;;;;;;;;5091593;28;20042;-70
2023/04/26 01:50:19;;;;;;;0.28;0.28;;;;;;;;;;5092409;28;20115;-71
2023/04/26 01:52:45;;;;;;;0.30;0.30;;;;;;;;;;5092508;28;20042;-70
2023/04/26 01:55:10;;;;;;;0.80;0.80;;;;;;;;;;5074090;28;20040;-71
2023/04/26 01:57:36;;;;;;;0.10;0.10;;;;;;;;;;5092404;28;20455;-71
2023/04/26 02:00:01;;;;;;;1.00;1.00;;;;;;;;;;5074255;28;20407;-72
2023/04/26 02:02:38;;;;;;;0.95;0.63;;;;;;;;;;5092432;28;20036;-70
2023/04/26 02:05:04;;;;;;;0.10;0.10;;;;;;;;;;5092314;28;20043;-71
2023/04/26 02:07:29;;;;;;;0.10;0.10;;;;;;;;;;5092309;28;20036;-71
2023/04/26 02:09:55;;;;;;;0.10;0.10;;;;;;;;;;5092187;28;20040;-71
2023/04/26 02:12:21;;;;;;;0.43;0.43;;;;;;;;;;5074082;28;20043;-70
2023/04/26 02:14:47;;;;;;;0.38;0.38;;;;;;;;;;5074696;28;20028;-71
2023/04/26 02:17:13;;;;;;;0.20;0.20;;;;;;;;;;5074029;28;20063;-71
2023/04/26 02:19:39;;;;;;;0.10;0.10;;;;;;;;;;5073823;28;20040;-71
2023/04/26 02:22:05;;;;;;;1.60;0.77;;;;;;;;;;5073931;28;20039;-71
2023/04/26 02:24:31;;;;;;;3.92;1.20;;;;;;;;;;5073895;28;20082;-70
2023/04/26 02:27:02;;;;;;;1.25;0.57;;;;;;;;;;5073538;28;20028;-70
2023/04/26 02:29:27;;;;;;;0.82;0.75;;;;;;;;;;5095696;28;20039;-69
2023/04/26 02:31:53;;;;;;;1.27;0.82;;;;;;;;;;5077265;28;20032;-70
2023/04/26 02:34:18;;;;;;;0.95;0.60;;;;;;;;;;5095437;28;20059;-70
2023/04/26 02:36:45;;;;;;;0.15;0.15;;;;;;;;;;5095240;28;20058;-71
2023/04/26 02:39:11;;;;;;;7.68;0.80;;;;;;;;;;5095213;28;20507;-71
2023/04/26 02:41:37;;;;;;;0.52;0.50;;;;;;;;;;5077197;28;20528;-70
2023/04/26 02:44:02;;;;;;;0.95;0.77;;;;;;;;;;5095244;28;20036;-71
2023/04/26 02:46:28;;;;;;;0.80;0.50;;;;;;;;;;5077355;28;20364;-70
2023/04/26 02:48:53;;;;;;;0.57;0.55;;;;;;;;;;5095292;28;20433;-70
2023/04/26 02:51:18;;;;;;;2.40;0.85;;;;;;;;;;5095182;28;20071;-71
2023/04/26 02:53:44;;;;;;;0.85;0.70;;;;;;;;;;5076814;28;20491;-71
2023/04/26 02:56:10;;;;;;;0.10;0.10;;;;;;;;;;5077303;28;20076;-71
2023/04/26 02:58:35;;;;;;;0.50;0.50;;;;;;;;;;5076935;28;20036;-70
2023/04/26 03:01:01;;;;;;;1.30;1.25;;;;;;;;;;5077003;28;20081;-70
2023/04/26 03:03:26;;;;;;;1.08;0.77;;;;;;;;;;5090184;28;20040;-72
2023/04/26 03:05:52;;;;;;;1.35;1.05;;;;;;;;;;5091417;28;20467;-74
2023/04/26 03:08:17;;;;;;;3.30;1.00;;;;;;;;;;5075753;28;20059;-70
2023/04/26 03:10:46;;;;;;;2.42;1.52;;;;;;;;;;5075155;28;20069;-70
2023/04/26 03:13:11;;;;;;;2.60;1.67;;;;;;;;;;5073767;28;20109;-70
2023/04/26 03:15:37;;;;;;;3.28;0.35;;;;;;;;;;5056437;28;20032;-71
2023/04/26 03:18:03;;;;;;;2.80;0.95;;;;;;;;;;5072532;28;20093;-70
2023/04/26 03:20:28;;;;;;;1.50;0.65;;;;;;;;;;5072827;28;20032;-75
2023/04/26 03:22:54;;;;;;;1.50;0.77;;;;;;;;;;5090796;28;20036;-71
2023/04/26 03:25:19;;;;;;;0.73;0.57;;;;;;;;;;5090935;28;20027;-71
2023/04/26 03:27:44;;;;;;;2.58;1.23;;;;;;;;;;5091095;28;20024;-71
2023/04/26 03:30:10;;;;;;;0.93;0.65;;;;;;;;;;5072687;28;20480;-75
2023/04/26 03:32:37;;;;;;;1.20;0.82;;;;;;;;;;5072588;28;20039;-71
2023/04/26 03:35:03;;;;;;;3.88;1.40;;;;;;;;;;5072560;28;20036;-71
2023/04/26 03:37:29;;;;;;;1.25;1.00;;;;;;;;;;5072426;28;20072;-71
2023/04/26 03:40:01;;;;;;;0.20;0.20;;;;;;;;;;5072055;28;20035;-73
2023/04/26 03:42:26;;;;;;;1.95;1.15;;;;;;;;;;5072536;28;20452;-72
2023/04/26 03:44:52;;;;;;;2.13;1.20;;;;;;;;;;5072371;28;20020;-72
2023/04/26 03:47:18;;;;;;;1.52;0.70;;;;;;;;;;5072555;28;20032;-70
2023/04/26 03:49:43;;;;;;;0.63;0.60;;;;;;;;;;5072303;28;20059;-71
2023/04/26 03:52:09;;;;;;;0.10;0.10;;;;;;;;;;5071605;28;20040;-71
2023/04/26 03:54:34;;;;;;;0.10;0.10;;;;;;;;;;5090172;28;20038;-73
2023/04/26 03:57:00;;;;;;;0.10;0.10;;;;;;;;;;5072183;28;20036;-72
2023/04/26 03:59:25;;;;;;;0.10;0.10;;;;;;;;;;5071264;28;20044;-70
2023/04/26 04:01:52;;;;;;;0.10;0.10;;;;;;;;;;5070896;28;20039;-71
2023/04/26 04:04:19;;;;;;;0.15;0.15;;;;;;;;;;5072096;28;20035;-71
2023/04/26 04:06:45;;;;;;;0.10;0.10;;;;;;;;;;5071792;28;20471;-72
2023/04/26 04:09:10;;;;;;;1.00;0.90;;;;;;;;;;5072190;28;20123;-70
2023/04/26 04:11:36;;;;;;;0.10;0.10;;;;;;;;;;5089785;28;20052;-71
2023/04/26 04:14:01;;;;;;;0.15;0.15;;;;;;;;;;5089815;28;20028;-71
2023/04/26 04:16:27;;;;;;;0.10;0.10;;;;;;;;;;5071706;28;20040;-70
2023/04/26 04:18:52;;;;;;;0.20;0.20;;;;;;;;;;5071729;28;20036;-72
2023/04/26 04:21:18;;;;;;;1.02;0.20;;;;;;;;;;5089561;28;20110;-70
2023/04/26 04:23:44;;;;;;;1.17;0.70;;;;;;;;;;5071692;28;20847;-71
2023/04/26 04:26:11;;;;;;;0.88;0.70;;;;;;;;;;5089698;28;20089;-71
2023/04/26 04:28:40;;;;;;;0.10;0.10;;;;;;;;;;5071643;28;20031;-69
2023/04/26 04:31:08;;;;;;;4.13;0.65;;;;;;;;;;5088696;28;20063;-70
2023/04/26 04:33:34;;;;;;;0.00;0.00;;;;;;;;;;5089700;28;20027;-70
2023/04/26 04:36:01;;;;;;;0.50;0.40;;;;;;;;;;5070742;28;20124;-70
2023/04/26 04:38:28;;;;;;;0.10;0.10;;;;;;;;;;5071192;28;20130;-71
2023/04/26 04:40:53;;;;;;;0.10;0.10;;;;;;;;;;5071453;28;20126;-71
2023/04/26 04:43:20;;;;;;;0.08;0.08;;;;;;;;;;5071450;28;20128;-71
2023/04/26 04:45:48;;;;;;;0.10;0.10;;;;;;;;;;5086796;28;20035;-74
2023/04/26 04:48:13;;;;;;;0.10;0.10;;;;;;;;;;5071211;28;20100;-71
2023/04/26 04:50:39;;;;;;;0.10;0.10;;;;;;;;;;5070060;28;20067;-71
2023/04/26 04:53:04;;;;;;;0.00;0.00;;;;;;;;;;5071300;28;20024;-72
2023/04/26 04:55:29;;;;;;;0.10;0.10;;;;;;;;;;5090030;28;20040;-70
2023/04/26 04:57:55;;;;;;;0.10;0.10;;;;;;;;;;5070915;28;20509;-72
2023/04/26 05:00:21;;;;;;;0.10;0.10;;;;;;;;;;5069344;28;20078;-71
2023/04/26 05:03:10;;;;;;;0.47;0.28;;;;;;;;;;5080927;28;20051;-71
2023/04/26 05:05:36;;;;;;;0.52;0.40;;;;;;;;;;5070637;28;20028;-71
2023/04/26 05:08:02;;;;;;;0.35;0.35;;;;;;;;;;5069756;28;20027;-71
2023/04/26 05:10:28;;;;;;;0.10;0.10;;;;;;;;;;5088164;28;20028;-73
2023/04/26 05:12:53;;;;;;;0.10;0.10;;;;;;;;;;5068132;28;20032;-71
2023/04/26 05:15:19;;;;;;;0.65;0.43;;;;;;;;;;5082373;28;20032;-71
2023/04/26 05:17:44;;;;;;;0.10;0.10;;;;;;;;;;5068276;28;20037;-71
2023/04/26 05:20:24;;;;;;;;;;;;;;;;;;5066823;28;20037;-71
2023/04/26 05:22:49;;;;;;;0.10;0.10;;;;;;;;;;5080998;28;19923;-74
2023/04/26 05:25:16;;;;;;;0.10;0.10;;;;;;;;;;5089572;28;20511;-75
2023/04/26 05:27:44;;;;;;;0.10;0.10;;;;;;;;;;5070855;28;20070;-70
2023/04/26 05:30:28;;;;;;;0.10;0.10;;;;;;;;;;5085221;28;20115;-71
2023/04/26 05:33:22;;;;;;;0.13;0.13;;;;;;;;;;5062010;28;20046;-71
2023/04/26 05:35:56;;;;;;;0.10;0.10;;;;;;;;;;5065248;28;20052;-70
2023/04/26 05:38:23;;;;;;;0.05;0.05;;;;;;;;;;5061607;28;20483;-71
2023/04/26 05:40:49;;;;;;;0.10;0.10;;;;;;;;;;5062081;28;20083;-73
2023/04/26 05:43:15;;;;;;;0.10;0.10;;;;;;;;;;5056456;28;20036;-72
2023/04/26 05:45:49;;;;;;;0.10;0.10;;;;;;;;;;5083285;28;20375;-71
2023/04/26 05:48:14;;;;;;;0.10;0.10;;;;;;;;;;5086833;28;20050;-73
2023/04/26 05:50:39;;;;;;;0.10;0.10;;;;;;;;;;5086933;28;20107;-71
2023/04/26 05:53:05;;;;;;;0.10;0.10;;;;;;;;;;5059875;28;20060;-73
2023/04/26 05:55:30;;;;;;;0.05;0.05;;;;;;;;;;5077113;28;20390;-76
2023/04/26 05:57:57;;;;;;;0.10;0.10;;;;;;;;;;5077114;28;20037;-72
2023/04/26 06:00:22;;;;;;;0.10;0.10;;;;;;;;;;5059045;28;20028;-74
2023/04/26 06:02:48;;;;;;;0.10;0.10;;;;;;;;;;5063482;28;20032;-76
2023/04/26 06:05:16;;;;;;;0.10;0.10;;;;;;;;;;5063488;28;20032;-73
2023/04/26 06:07:43;;;;;;;0.10;0.10;;;;;;;;;;5062436;28;20550;-72
2023/04/26 06:10:09;;;;;;;0.10;0.10;;;;;;;;;;5082423;28;20028;-71
2023/04/26 06:12:34;;;;;;;0.10;0.10;;;;;;;;;;5063072;28;20361;-72
2023/04/26 06:15:00;;;;;;;0.75;0.75;;;;;;;;;;5063105;28;20020;-72
2023/04/26 06:17:28;;;;;;;0.20;0.20;;;;;;;;;;5064099;28;20479;-71
2023/04/26 06:19:53;;;;;;;0.10;0.10;;;;;;;;;;5063029;28;20078;-71
2023/04/26 06:22:19;;;;;;;0.10;0.10;;;;;;;;;;5063042;28;20106;-72
2023/04/26 06:24:44;;;;;;;0.10;0.10;;;;;;;;;;5067051;28;20035;-73
2023/04/26 06:27:10;;;;;;;0.10;0.10;;;;;;;;;;5091709;28;20023;-73
2023/04/26 06:29:36;;;;;;;1.85;0.85;;;;;;;;;;5073624;28;20038;-72
2023/04/26 06:32:02;;;;;;;0.10;0.10;;;;;;;;;;5073587;28;20119;-72
2023/04/26 06:34:27;;;;;;;0.13;0.13;;;;;;;;;;5073465;28;20028;-72
2023/04/26 06:36:53;;;;;;;0.88;0.22;;;;;;;;;;5073594;28;20028;-74
2023/04/26 06:39:21;;;;;;;0.32;0.32;;;;;;;;;;5072571;28;20083;-73
2023/04/26 06:41:47;;;;;;;0.75;0.50;;;;;;;;;;5084686;28;20450;-72
2023/04/26 06:44:23;;;;;;;1.27;1.15;;;;;;;;;;5071165;28;20047;-73
2023/04/26 06:46:48;;;;;;;0.32;0.32;;;;;;;;;;5090689;28;20036;-73
2023/04/26 06:49:14;;;;;;;0.10;0.10;;;;;;;;;;5052926;28;20460;-74
2023/04/26 06:51:40;;;;;;;0.10;0.10;;;;;;;;;;5071499;28;20052;-72
2023/04/26 06:54:05;;;;;;;0.20;0.20;;;;;;;;;;5070624;28;20139;-72
2023/04/26 06:56:31;;;;;;;0.20;0.20;;;;;;;;;;5071106;28;20382;-73
2023/04/26 06:59:00;;;;;;;0.20;0.20;;;;;;;;;;5071137;28;20047;-73
2023/04/26 07:01:32;;;;;;;0.10;0.10;;;;;;;;;;5071111;28;20060;-70
2023/04/26 07:04:06;;;;;;;0.10;0.10;;;;;;;;;;5070949;28;20032;-71
2023/04/26 07:06:32;;;;;;;0.50;0.50;;;;;;;;;;5070782;28;20085;-73
2023/04/26 07:08:57;;;;;;;11.57;1.77;;;;;;;;;;5071044;28;20442;-72
2023/04/26 07:11:23;;;;;;;0.20;0.20;;;;;;;;;;5071084;28;20737;-73
2023/04/26 07:13:49;;;;;;;0.20;0.20;;;;;;;;;;5052111;28;20036;-71
2023/04/26 07:16:14;;;;;;;0.20;0.20;;;;;;;;;;5052719;28;20046;-71
2023/04/26 07:18:40;;;;;;;0.10;0.10;;;;;;;;;;5070703;28;20036;-72
2023/04/26 07:21:05;;;;;;;0.20;0.20;;;;;;;;;;5070666;28;20033;-72
2023/04/26 07:23:31;;;;;;;0.20;0.20;;;;;;;;;;5070494;28;20032;-73
2023/04/26 07:25:56;;;;;;;0.20;0.20;;;;;;;;;;5071930;28;20028;-72
2023/04/26 07:28:22;;;;;;;0.20;0.20;;;;;;;;;;5054324;28;20147;-72
2023/04/26 07:30:47;;;;;;;0.55;0.30;;;;;;;;;;5072722;28;20514;-71
2023/04/26 07:33:13;;;;;;;0.10;0.10;;;;;;;;;;5070821;28;20032;-70
2023/04/26 07:35:38;;;;;;;0.17;0.17;;;;;;;;;;5070875;28;20078;-71
2023/04/26 07:38:03;;;;;;;0.20;0.20;;;;;;;;;;5070486;28;20021;-72
2023/04/26 07:40:30;;;;;;;0.20;0.20;;;;;;;;;;5070651;28;20562;-73
2023/04/26 07:42:56;;;;;;;0.20;0.20;;;;;;;;;;5052281;28;20032;-72
2023/04/26 07:45:21;;;;;;;0.20;0.20;;;;;;;;;;5079781;28;20040;-72
2023/04/26 07:47:47;;;;;;;0.20;0.20;;;;;;;;;;5076143;28;20090;-72
2023/04/26 07:50:12;;;;;;;0.40;0.40;;;;;;;;;;5070226;28;20046;-73
2023/04/26 07:52:38;;;;;;;0.20;0.20;;;;;;;;;;5070143;28;20381;-71
2023/04/26 07:55:04;;;;;;;0.10;0.10;;;;;;;;;;5072218;28;20036;-71
2023/04/26 07:57:29;;;;;;;0.20;0.20;;;;;;;;;;5090375;28;20472;-71
2023/04/26 07:59:55;;;;;;;0.20;0.20;;;;;;;;;;5090069;28;20036;-71
2023/04/26 08:02:20;;;;;;;0.20;0.20;;;;;;;;;;5071140;28;20032;-69
2023/04/26 08:04:48;;;;;;;0.35;0.35;;;;;;;;;;5067364;28;20071;-71
2023/04/26 08:07:13;;;;;;;0.20;0.20;;;;;;;;;;5087670;28;20063;-71
2023/04/26 08:09:39;;;;;;;0.20;0.20;;;;;;;;;;5069188;28;20467;-70
2023/04/26 08:12:04;;;;;;;0.20;0.20;;;;;;;;;;5078402;28;20032;-70
2023/04/26 08:14:30;;;;;;;0.20;0.20;;;;;;;;;;5058561;28;20049;-71
2023/04/26 08:16:55;;;;;;;0.20;0.20;;;;;;;;;;5089817;28;20060;-74
2023/04/26 08:19:20;;;;;;;1.25;0.60;;;;;;;;;;5086077;28;20475;-71
2023/04/26 08:21:46;;;;;;;0.20;0.20;;;;;;;;;;5087614;28;20047;-74
2023/04/26 08:24:11;;;;;;;2.85;0.60;;;;;;;;;;5089413;28;20028;-73
2023/04/26 08:26:37;;;;;;;0.50;0.50;;;;;;;;;;5087790;28;20028;-71
2023/04/26 08:29:02;;;;;;;0.63;0.60;;;;;;;;;;5061784;28;20032;-71
2023/04/26 08:31:27;;;;;;;0.28;0.28;;;;;;;;;;5069640;28;20400;-70
2023/04/26 08:33:53;;;;;;;0.10;0.10;;;;;;;;;;5069079;28;20060;-70
2023/04/26 08:36:19;;;;;;;2.38;0.68;;;;;;;;;;5069438;28;20373;-70
2023/04/26 08:38:45;;;;;;;0.55;0.50;;;;;;;;;;5067842;28;20031;-71
2023/04/26 08:41:13;;;;;;;0.20;0.20;;;;;;;;;;5079183;28;20028;-70
2023/04/26 08:43:39;;;;;;;0.10;0.10;;;;;;;;;;5079819;28;20991;-70
2023/04/26 08:46:07;;;;;;;0.17;0.17;;;;;;;;;;5077271;28;20032;-71
2023/04/26 08:48:33;;;;;;;0.85;0.68;;;;;;;;;;5078988;28;20034;-70
2023/04/26 08:50:59;;;;;;;0.40;0.40;;;;;;;;;;5079348;28;20452;-71
2023/04/26 08:53:25;;;;;;;0.20;0.20;;;;;;;;;;5077807;28;20124;-70
2023/04/26 08:55:51;;;;;;;0.20;0.20;;;;;;;;;;5078590;28;20110;-71
2023/04/26 08:58:17;;;;;;;5.72;0.50;;;;;;;;;;5078910;28;20064;-70
2023/04/26 09:00:44;;;;;;;0.20;0.20;;;;;;;;;;5083340;28;20404;-70
2023/04/26 09:03:10;;;;;;;0.10;0.10;;;;;;;;;;5082966;28;20086;-70
2023/04/26 09:05:35;;;;;;;0.20;0.20;;;;;;;;;;5078894;28;20028;-70
2023/04/26 09:08:02;;;;;;;0.45;0.45;;;;;;;;;;5078444;28;20070;-70
2023/04/26 09:10:29;;;;;;;0.30;0.30;;;;;;;;;;5077510;28;20119;-69
2023/04/26 09:12:54;;;;;;;0.20;0.20;;;;;;;;;;5076290;28;20414;-70
2023/04/26 09:15:24;;;;;;;0.20;0.20;;;;;;;;;;5073990;28;20119;-70
2023/04/26 09:17:50;;;;;;;0.57;0.30;;;;;;;;;;5068583;28;20047;-71
2023/04/26 09:20:15;;;;;;;0.20;0.20;;;;;;;;;;5068712;28;20256;-71
2023/04/26 09:22:41;;;;;;;0.22;0.22;;;;;;;;;;5071439;28;20417;-71
2023/04/26 09:25:06;;;;;;;2.72;0.88;;;;;;;;;;5077347;28;20051;-70
2023/04/26 09:27:36;;;;;;;0.20;0.20;;;;;;;;;;5078488;28;20028;-70
2023/04/26 09:30:06;;;;;;;2.10;1.25;;;;;;;;;;5059854;28;20089;-70
2023/04/26 09:32:47;;;;;;;0.40;0.40;;;;;;;;;;5044401;28;20028;-70
2023/04/26 09:35:45;;;;;;;0.55;0.50;;;;;;;;;;5079563;28;20032;-70
2023/04/26 09:38:11;;;;;;;0.20;0.20;;;;;;;;;;5030784;28;20083;-70
2023/04/26 09:40:41;;;;;;;1.25;0.47;;;;;;;;;;5079972;28;20052;-70
2023/04/26 09:43:07;;;;;;;5.38;0.57;;;;;;;;;;5077727;28;20035;-70
2023/04/26 09:45:42;;;;;;;15.57;1.77;;;;;;;;;;5078966;28;20036;-70
2023/04/26 09:48:15;;;;;;;0.75;0.32;;;;;;;;;;5078520;28;20032;-70
2023/04/26 09:50:41;;;;;;;0.20;0.20;;;;;;;;;;5077954;28;20032;-70
2023/04/26 09:53:07;;;;;;;0.32;0.20;;;;;;;;;;5079217;28;20021;-70
2023/04/26 09:55:33;;;;;;;0.65;0.32;;;;;;;;;;5084174;28;20047;-70
2023/04/26 09:57:59;;;;;;;0.68;0.68;;;;;;;;;;5059401;28;20036;-70
2023/04/26 10:00:28;;;;;;;0.30;0.30;;;;;;;;;;5077113;28;20032;-70
2023/04/26 10:02:54;;;;;;;0.22;0.22;;;;;;;;;;5078784;28;20043;-72
2023/04/26 10:05:20;;;;;;;0.30;0.30;;;;;;;;;;5077454;28;20025;-69
2023/04/26 10:07:46;;;;;;;0.20;0.20;;;;;;;;;;5076935;28;20035;-73
2023/04/26 10:10:12;;;;;;;0.75;0.30;;;;;;;;;;5060555;28;20034;-70
2023/04/26 10:12:39;;;;;;;1.38;1.33;;;;;;;;;;5077296;28;20973;-70
2023/04/26 10:15:05;;;;;;;0.30;0.30;;;;;;;;;;5077271;28;20028;-70
2023/04/26 10:17:31;;;;;;;0.20;0.20;;;;;;;;;;5078580;28;20056;-70
2023/04/26 10:19:57;;;;;;;0.20;0.20;;;;;;;;;;5058889;28;20017;-69
2023/04/26 10:22:24;;;;;;;0.30;0.30;;;;;;;;;;5079561;28;20036;-70
2023/04/26 10:24:51;;;;;;;0.35;0.35;;;;;;;;;;5078903;28;20067;-70
2023/04/26 10:27:36;;;;;;;0.20;0.20;;;;;;;;;;5076641;28;20035;-70
2023/04/26 10:30:03;;;;;;;0.20;0.20;;;;;;;;;;5078578;28;20032;-70
2023/04/26 10:32:28;;;;;;;1.33;0.45;;;;;;;;;;5077687;28;20176;-70
2023/04/26 10:35:11;;;;;;;0.50;0.50;;;;;;;;;;5080942;28;20114;-70
2023/04/26 10:37:36;;;;;;;1.48;0.40;;;;;;;;;;5076671;28;20045;-70
2023/04/26 10:40:24;;;;;;;0.20;0.20;;;;;;;;;;5078661;28;20257;-71
2023/04/26 10:42:50;;;;;;;2.50;0.52;;;;;;;;;;5078049;28;20563;-71
2023/04/26 10:45:26;;;;;;;0.20;0.20;;;;;;;;;;5075322;28;20029;-70
2023/04/26 10:48:11;;;;;;;0.20;0.20;;;;;;;;;;5075708;28;20094;-70
2023/04/26 10:50:56;;;;;;;0.38;0.28;;;;;;;;;;5069287;28;20040;-71
2023/04/26 10:53:22;;;;;;;0.30;0.30;;;;;;;;;;5084025;28;20487;-70
2023/04/26 10:55:47;;;;;;;0.30;0.30;;;;;;;;;;5082935;28;20048;-70
2023/04/26 10:58:28;;;;;;;1.77;0.40;;;;;;;;;;5079503;28;20041;-70
2023/04/26 11:01:07;;;;;;;0.73;0.35;;;;;;;;;;5069839;28;20032;-70
2023/04/26 11:03:33;;;;;;;0.30;0.30;;;;;;;;;;5071015;28;20036;-70
2023/04/26 11:05:58;;;;;;;0.25;0.25;;;;;;;;;;5070967;28;20036;-70
2023/04/26 11:08:29;;;;;;;0.30;0.30;;;;;;;;;;5082099;28;20043;-71
2023/04/26 11:11:00;;;;;;;0.82;0.40;;;;;;;;;;5080860;28;20035;-70
2023/04/26 11:13:26;;;;;;;1.42;0.35;;;;;;;;;;5070511;28;20036;-70
2023/04/26 11:15:52;;;;;;;0.20;0.20;;;;;;;;;;5058769;28;20020;-73
2023/04/26 11:18:18;;;;;;;0.65;0.40;;;;;;;;;;5082819;28;20028;-71
2023/04/26 11:20:45;;;;;;;2.05;0.82;;;;;;;;;;5079816;28;20028;-70
2023/04/26 11:23:10;;;;;;;0.30;0.30;;;;;;;;;;5052580;28;20106;-73
2023/04/26 11:25:37;;;;;;;0.43;0.30;;;;;;;;;;5070970;28;20479;-71
2023/04/26 11:28:04;;;;;;;0.45;0.45;;;;;;;;;;5070273;28;20078;-71
2023/04/26 11:30:30;;;;;;;0.20;0.20;;;;;;;;;;5070562;28;20128;-72
2023/04/26 11:32:57;;;;;;;0.20;0.20;;;;;;;;;;5052475;28;20033;-73
2023/04/26 11:35:22;;;;;;;0.20;0.20;;;;;;;;;;5052231;28;20044;-75
2023/04/26 11:37:50;;;;;;;0.30;0.30;;;;;;;;;;5070114;28;20480;-71
2023/04/26 11:40:16;;;;;;;0.20;0.20;;;;;;;;;;5052469;28;20044;-72
2023/04/26 11:42:42;;;;;;;1.85;0.57;;;;;;;;;;5052201;28;20082;-71
2023/04/26 11:45:08;;;;;;;1.35;0.75;;;;;;;;;;5070377;28;20032;-71
2023/04/26 11:47:34;;;;;;;0.52;0.40;;;;;;;;;;5074494;28;20376;-70
2023/04/26 11:50:00;;;;;;;0.20;0.20;;;;;;;;;;5092571;28;20099;-71
2023/04/26 11:52:25;;;;;;;0.47;0.38;;;;;;;;;;5079512;28;20146;-70
2023/04/26 11:54:59;;;;;;;0.60;0.30;;;;;;;;;;5072046;28;20526;-69
2023/04/26 11:57:29;;;;;;;0.68;0.68;;;;;;;;;;5089197;28;20382;-69
2023/04/26 12:00:05;;;;;;;7.13;0.65;;;;;;;;;;5089917;28;20046;-69
2023/04/26 12:02:34;;;;;;;9.98;1.17;;;;;;;;;;5089542;28;20137;-68
2023/04/26 12:04:59;;;;;;;0.52;0.47;;;;;;;;;;5090218;28;20471;-69
2023/04/26 12:07:25;;;;;;;0.20;0.20;;;;;;;;;;5088756;28;20035;-69
2023/04/26 12:09:50;;;;;;;0.28;0.22;;;;;;;;;;5089127;28;20478;-69
2023/04/26 12:12:16;;;;;;;1.55;0.95;;;;;;;;;;5088973;28;20036;-69
2023/04/26 12:14:41;;;;;;;1.77;0.82;;;;;;;;;;5090392;28;20142;-68
2023/04/26 12:17:06;;;;;;;2.05;0.63;;;;;;;;;;5089945;28;20032;-68
2023/04/26 12:19:32;;;;;;;23.80;15.73;;;;;;;;;;5090008;28;20040;-69
2023/04/26 12:21:58;;;;;;;0.28;0.28;;;;;;;;;;5090070;28;20074;-69
2023/04/26 12:24:24;;;;;;;6.45;1.00;;;;;;;;;;5090028;28;20036;-69
2023/04/26 12:26:50;;;;;;;1.90;0.50;;;;;;;;;;5090076;28;20064;-68
2023/04/26 12:29:15;;;;;;;0.65;0.50;;;;;;;;;;5089473;28;20059;-69
2023/04/26 12:31:41;;;;;;;0.25;0.25;;;;;;;;;;5088940;28;20024;-68
2023/04/26 12:34:07;;;;;;;0.65;0.22;;;;;;;;;;5071953;28;20059;-69
2023/04/26 12:36:32;;;;;;;0.20;0.20;;;;;;;;;;5089709;28;20951;-69
2023/04/26 12:38:59;;;;;;;0.25;0.25;;;;;;;;;;5089526;28;20395;-68
2023/04/26 12:41:25;;;;;;;0.50;0.50;;;;;;;;;;5089817;28;20111;-68
2023/04/26 12:43:50;;;;;;;0.30;0.30;;;;;;;;;;5089471;28;20111;-68
2023/04/26 12:46:16;;;;;;;0.20;0.20;;;;;;;;;;5089859;28;20077;-68
2023/04/26 12:48:41;;;;;;;0.93;0.32;;;;;;;;;;5089374;28;20028;-69
2023/04/26 12:51:07;;;;;;;0.20;0.20;;;;;;;;;;5089903;28;20111;-69
2023/04/26 12:53:32;;;;;;;0.75;0.57;;;;;;;;;;5089227;28;20043;-68
2023/04/26 12:55:58;;;;;;;1.75;0.60;;;;;;;;;;5089128;28;20027;-69
2023/04/26 12:58:24;;;;;;;2.30;0.77;;;;;;;;;;5089462;28;20039;-69
2023/04/26 13:00:50;;;;;;;0.30;0.30;;;;;;;;;;5089679;28;20058;-69
2023/04/26 13:03:16;;;;;;;1.58;0.60;;;;;;;;;;5089390;28;20016;-70
2023/04/26 13:05:41;;;;;;;0.45;0.40;;;;;;;;;;5089537;28;20060;-69
2023/04/26 13:08:07;;;;;;;0.35;0.30;;;;;;;;;;5088920;28;20098;-69
2023/04/26 13:10:32;;;;;;;2.13;1.05;;;;;;;;;;5088605;28;20028;-70
2023/04/26 13:12:58;;;;;;;0.90;0.68;;;;;;;;;;5088861;28;20040;-70
2023/04/26 13:15:25;;;;;;;0.30;0.30;;;;;;;;;;5089707;28;20026;-69
2023/04/26 13:17:51;;;;;;;1.88;0.47;;;;;;;;;;5088899;28;20043;-69
2023/04/26 13:20:16;;;;;;;0.20;0.20;;;;;;;;;;5088967;28;20032;-69
2023/04/26 13:22:42;;;;;;;0.32;0.30;;;;;;;;;;5088899;28;20038;-69
2023/04/26 13:25:08;;;;;;;0.52;0.52;;;;;;;;;;5089015;28;20077;-69
2023/04/26 13:27:33;;;;;;;0.30;0.30;;;;;;;;;;5088744;28;20098;-69
2023/04/26 13:29:58;;;;;;;0.20;0.20;;;;;;;;;;5088603;28;20035;-69
2023/04/26 13:32:24;;;;;;;0.40;0.40;;;;;;;;;;5089023;28;20103;-69
2023/04/26 13:34:50;;;;;;;1.13;0.77;;;;;;;;;;5088644;28;20036;-69
2023/04/26 13:37:18;;;;;;;0.30;0.30;;;;;;;;;;5088781;28;20036;-69
2023/04/26 13:39:43;;;;;;;0.63;0.63;;;;;;;;;;5088453;28;20072;-69
2023/04/26 13:42:09;;;;;;;2.60;0.40;;;;;;;;;;5088284;28;20269;-69
2023/04/26 13:44:34;;;;;;;13.75;0.98;;;;;;;;;;5088667;28;20024;-69
2023/04/26 13:47:00;;;;;;;0.20;0.20;;;;;;;;;;5088902;28;20122;-69
2023/04/26 13:49:26;;;;;;;0.57;0.57;;;;;;;;;;5088772;28;20089;-70
2023/04/26 13:51:52;;;;;;;0.90;0.40;;;;;;;;;;5088544;28;20071;-69
2023/04/26 13:54:17;;;;;;;0.30;0.30;;;;;;;;;;5070504;28;20036;-69
2023/04/26 13:56:43;;;;;;;0.17;0.17;;;;;;;;;;5088765;28;20163;-69
2023/04/26 13:59:08;;;;;;;0.95;0.38;;;;;;;;;;5071944;28;20476;-69
2023/04/26 14:01:37;;;;;;;0.30;0.30;;;;;;;;;;5090918;28;20032;-70
2023/04/26 14:04:03;;;;;;;0.28;0.28;;;;;;;;;;5090148;28;21052;-69
2023/04/26 14:06:29;;;;;;;0.65;0.40;;;;;;;;;;5088463;28;20059;-69
2023/04/26 14:08:54;;;;;;;0.98;0.35;;;;;;;;;;5088434;28;20028;-69
2023/04/26 14:11:19;;;;;;;1.00;0.57;;;;;;;;;;5070550;28;20050;-69
2023/04/26 14:13:45;;;;;;;0.40;0.35;;;;;;;;;;5088743;28;20464;-69
2023/04/26 14:16:11;;;;;;;1.30;0.50;;;;;;;;;;5088561;28;20020;-69
2023/04/26 14:18:38;;;;;;;0.93;0.85;;;;;;;;;;5088605;28;20109;-69
2023/04/26 14:21:04;;;;;;;0.45;0.45;;;;;;;;;;5088444;28;20036;-69
2023/04/26 14:23:29;;;;;;;0.28;0.28;;;;;;;;;;5088046;28;20116;-69
2023/04/26 14:25:55;;;;;;;0.20;0.20;;;;;;;;;;5091559;28;20531;-68
2023/04/26 14:28:20;;;;;;;1.05;0.38;;;;;;;;;;5090401;28;20028;-70
2023/04/26 14:30:46;;;;;;;0.50;0.40;;;;;;;;;;5090869;28;20040;-69
2023/04/26 14:33:12;;;;;;;0.55;0.50;;;;;;;;;;5091708;28;20494;-69
2023/04/26 14:35:37;;;;;;;0.20;0.20;;;;;;;;;;5091811;28;20063;-69
2023/04/26 14:38:03;;;;;;;4.93;1.10;;;;;;;;;;5083183;28;20025;-69
2023/04/26 14:40:29;;;;;;;0.73;0.73;;;;;;;;;;5086067;28;20115;-69